Time;durP1;ratioP1;P1;durP2;ratioP2;P2;SDS_P1;SDS_P2;PMS_P1;PMS_P2;Temp;Humidity;BMP_temperature;BMP_pressure;BME280_temperature;BME280_humidity;BME280_pressure;Samples;Min_cycle;Max_cycle;Signal;HPM_P1;HPM_P2
2022/08/01 00:02:12;;;;;;;18.30;11.20;;;;;;;19.02;100.00;101445.78;4664831;30;20026;-76
2022/08/01 00:04:37;;;;;;;15.35;10.77;;;;;;;19.02;100.00;101450.41;4666028;30;20473;-77
2022/08/01 00:07:03;;;;;;;19.42;11.77;;;;;;;19.02;100.00;101444.94;4666580;30;20503;-76
2022/08/01 00:09:28;;;;;;;18.55;11.90;;;;;;;18.98;100.00;101444.66;4682626;30;20030;-76
2022/08/01 00:11:54;;;;;;;18.98;12.25;;;;;;;19.04;100.00;101448.25;4667028;30;20345;-76
2022/08/01 00:14:19;;;;;;;21.40;12.07;;;;;;;19.00;100.00;101449.88;4665971;30;20759;-76
2022/08/01 00:16:44;;;;;;;18.52;12.13;;;;;;;19.01;100.00;101455.06;4664445;30;20030;-75
2022/08/01 00:19:10;;;;;;;19.30;12.38;;;;;;;19.03;100.00;101452.06;4664191;30;20600;-76
2022/08/01 00:21:35;;;;;;;21.20;12.90;;;;;;;18.98;100.00;101446.53;4665640;30;20023;-76
2022/08/01 00:24:00;;;;;;;21.38;12.95;;;;;;;18.99;100.00;101451.75;4664269;30;20110;-76
2022/08/01 00:26:26;;;;;;;21.52;12.82;;;;;;;18.98;100.00;101449.28;4680853;30;20604;-76
2022/08/01 00:28:51;;;;;;;23.10;13.25;;;;;;;18.98;100.00;101454.78;4682572;30;20033;-75
2022/08/01 00:31:16;;;;;;;23.35;13.32;;;;;;;18.98;100.00;101450.13;4681947;30;20029;-76
2022/08/01 00:33:42;;;;;;;19.75;13.07;;;;;;;18.95;100.00;101451.47;4682123;30;20026;-76
2022/08/01 00:36:07;;;;;;;19.00;12.52;;;;;;;18.99;100.00;101461.91;4665310;30;20034;-75
2022/08/01 00:38:33;;;;;;;21.10;12.65;;;;;;;18.98;100.00;101457.50;4682480;30;20030;-76
2022/08/01 00:40:58;;;;;;;25.45;12.82;;;;;;;19.00;100.00;101463.56;4682446;30;20038;-76
2022/08/01 00:43:23;;;;;;;17.38;12.57;;;;;;;18.94;100.00;101459.97;4666894;30;20072;-76
2022/08/01 00:45:49;;;;;;;27.20;13.00;;;;;;;18.97;100.00;101464.94;4680007;30;20030;-76
2022/08/01 00:48:14;;;;;;;18.00;12.95;;;;;;;18.98;100.00;101460.25;4682177;30;20092;-76
2022/08/01 00:50:40;;;;;;;22.98;13.02;;;;;;;18.99;100.00;101464.66;4682441;30;20479;-76
2022/08/01 00:53:05;;;;;;;20.58;13.07;;;;;;;19.01;100.00;101465.22;4682094;30;20029;-76
2022/08/01 00:55:31;;;;;;;18.70;12.18;;;;;;;18.98;100.00;101455.63;4664177;30;20117;-76
2022/08/01 00:57:58;;;;;;;23.13;14.10;;;;;;;18.96;100.00;101463.25;4679706;30;20112;-76
2022/08/01 01:00:24;;;;;;;24.90;13.07;;;;;;;18.97;100.00;101458.63;4681623;30;20112;-76
2022/08/01 01:02:49;;;;;;;22.67;13.88;;;;;;;18.95;100.00;101467.94;4680874;30;20034;-76
2022/08/01 01:05:15;;;;;;;24.65;13.70;;;;;;;18.94;100.00;101463.53;4681906;30;20457;-76
2022/08/01 01:07:46;;;;;;;22.73;14.07;;;;;;;18.92;100.00;101462.97;4681216;30;20049;-75
2022/08/01 01:10:11;;;;;;;;;;;;;;;19.06;100.00;101465.25;4682413;30;20022;-76
2022/08/01 01:12:41;;;;;;;27.27;14.67;;;;;;;18.95;100.00;101462.44;4682124;30;19917;-76
2022/08/01 01:15:18;;;;;;;25.80;15.45;;;;;;;18.92;100.00;101464.91;4682188;30;20034;-76
2022/08/01 01:17:59;;;;;;;22.95;15.35;;;;;;;18.90;100.00;101472.56;4679075;30;20042;-76
2022/08/01 01:20:31;;;;;;;23.63;14.88;;;;;;;18.87;100.00;101475.84;4681873;30;20525;-76
2022/08/01 01:23:20;;;;;;;24.38;14.63;;;;;;;18.84;100.00;101471.69;4681878;30;20502;-76
2022/08/01 01:26:04;;;;;;;22.40;14.68;;;;;;;18.82;100.00;101465.63;4680731;30;20108;-75
2022/08/01 01:28:41;;;;;;;23.83;14.50;;;;;;;18.83;100.00;101464.56;4665241;30;20157;-76
2022/08/01 01:31:10;;;;;;;23.65;14.85;;;;;;;18.76;100.00;101467.50;4664709;30;20034;-76
2022/08/01 01:33:39;;;;;;;20.50;13.48;;;;;;;18.77;100.00;101466.44;4663698;30;20526;-76
2022/08/01 01:36:09;;;;;;;22.65;13.50;;;;;;;18.74;100.00;101463.41;4666724;30;20065;-76
2022/08/01 01:38:41;;;;;;;20.38;13.40;;;;;;;18.76;100.00;101458.47;4680755;30;20033;-76
2022/08/01 01:41:08;;;;;;;19.70;13.05;;;;;;;18.75;100.00;101460.41;4681690;30;20026;-76
2022/08/01 01:43:36;;;;;;;21.98;13.07;;;;;;;18.73;100.00;101465.31;4679851;30;20066;-76
2022/08/01 01:46:03;;;;;;;20.63;12.82;;;;;;;18.71;100.00;101455.72;4679972;30;20042;-75
2022/08/01 01:48:29;;;;;;;18.63;12.70;;;;;;;18.76;100.00;101453.00;4669741;30;20084;-76
2022/08/01 01:50:56;;;;;;;19.77;12.25;;;;;;;18.77;100.00;101454.66;4685039;30;20038;-76
2022/08/01 01:53:23;;;;;;;19.83;12.18;;;;;;;18.72;100.00;101458.19;4668743;30;20045;-76
2022/08/01 01:55:54;;;;;;;19.42;12.27;;;;;;;18.77;100.00;101457.41;4668821;30;20030;-76
2022/08/01 01:58:21;;;;;;;14.48;10.60;;;;;;;18.77;100.00;101465.63;4680642;30;20042;-76
2022/08/01 02:00:49;;;;;;;18.60;11.05;;;;;;;18.76;100.00;101464.78;4667046;30;20308;-76
2022/08/01 02:03:17;;;;;;;18.60;11.55;;;;;;;18.77;100.00;101460.94;4684326;30;20034;-76
2022/08/01 02:05:43;;;;;;;17.20;11.40;;;;;;;18.82;100.00;101467.56;4684598;30;20046;-76
2022/08/01 02:08:11;;;;;;;20.00;11.35;;;;;;;18.83;100.00;101467.28;4684059;30;20439;-76
2022/08/01 02:10:38;;;;;;;15.68;11.23;;;;;;;18.84;100.00;101462.63;4682917;30;20034;-76
2022/08/01 02:13:06;;;;;;;19.13;11.23;;;;;;;18.86;100.00;101458.56;4683292;30;20038;-76
2022/08/01 02:15:33;;;;;;;17.67;11.15;;;;;;;18.84;100.00;101455.25;4684007;30;20068;-76
2022/08/01 02:18:01;;;;;;;18.27;11.10;;;;;;;18.81;100.00;101461.25;4683065;30;20044;-76
2022/08/01 02:20:29;;;;;;;20.02;11.85;;;;;;;18.84;100.00;101455.25;4669094;30;20139;-75
2022/08/01 02:23:11;;;;;;;16.48;11.55;;;;;;;18.86;100.00;101455.00;4683759;30;20585;-74
2022/08/01 02:25:47;;;;;;;15.18;11.27;;;;;;;18.85;100.00;101451.41;4666227;30;20053;-75
2022/08/01 02:28:27;;;;;;;16.77;11.35;;;;;;;18.89;100.00;101460.78;4667253;30;20048;-74
2022/08/01 02:30:56;;;;;;;18.88;11.25;;;;;;;18.92;100.00;101456.69;4669049;30;20041;-74
2022/08/01 02:33:24;;;;;;;18.35;12.00;;;;;;;18.93;100.00;101461.91;4683945;30;20084;-78
2022/08/01 02:35:57;;;;;;;17.92;11.82;;;;;;;18.95;100.00;101459.72;4684581;30;20419;-74
2022/08/01 02:38:26;;;;;;;19.75;12.18;;;;;;;18.95;100.00;101461.63;4683876;30;20471;-73
2022/08/01 02:40:54;;;;;;;19.30;12.18;;;;;;;19.00;100.00;101463.56;4668812;30;20448;-73
2022/08/01 02:43:23;;;;;;;17.67;11.50;;;;;;;18.99;100.00;101462.72;4683352;30;20041;-73
2022/08/01 02:45:52;;;;;;;19.02;12.23;;;;;;;18.92;100.00;101460.25;4684514;30;20038;-73
2022/08/01 02:48:20;;;;;;;16.73;12.35;;;;;;;18.99;100.00;101461.91;4682461;30;20053;-73
2022/08/01 02:50:49;;;;;;;17.52;12.45;;;;;;;18.91;100.00;101455.84;4684379;30;20045;-74
2022/08/01 02:53:18;;;;;;;16.83;12.38;;;;;;;18.92;100.00;101452.00;4666889;30;20034;-73
2022/08/01 02:55:47;;;;;;;20.13;12.48;;;;;;;18.87;100.00;101454.75;4683878;30;20033;-73
2022/08/01 02:58:14;;;;;;;18.00;12.38;;;;;;;18.85;100.00;101467.03;4682766;30;20030;-72
2022/08/01 03:00:42;;;;;;;17.63;12.10;;;;;;;18.92;100.00;101462.16;4679807;30;20351;-74
2022/08/01 03:03:09;;;;;;;18.92;12.85;;;;;;;18.93;100.00;101461.91;4684075;30;20042;-73
2022/08/01 03:05:37;;;;;;;19.40;12.57;;;;;;;18.94;100.00;101460.78;4663473;30;20400;-73
2022/08/01 03:08:04;;;;;;;20.58;12.73;;;;;;;18.93;100.00;101463.81;4666869;30;20030;-74
2022/08/01 03:10:31;;;;;;;19.92;12.57;;;;;;;18.94;100.00;101466.28;4669171;30;20181;-73
2022/08/01 03:13:00;;;;;;;20.73;13.07;;;;;;;18.95;100.00;101462.44;4683830;30;20519;-73
2022/08/01 03:15:28;;;;;;;18.67;12.73;;;;;;;18.95;100.00;101467.94;4682021;30;20147;-73
2022/08/01 03:17:55;;;;;;;20.90;13.50;;;;;;;18.91;100.00;101461.31;4684248;30;20046;-73
2022/08/01 03:20:24;;;;;;;20.83;13.25;;;;;;;18.93;100.00;101459.16;4682715;30;20041;-73
2022/08/01 03:22:52;;;;;;;21.42;13.45;;;;;;;18.90;100.00;101459.69;4668203;30;20034;-73
2022/08/01 03:25:19;;;;;;;20.92;13.77;;;;;;;18.89;100.00;101477.22;4681922;30;20048;-73
2022/08/01 03:27:51;;;;;;;20.95;13.38;;;;;;;18.89;100.00;101479.97;4682349;30;20102;-74
2022/08/01 03:30:17;;;;;;;21.35;13.48;;;;;;;18.89;100.00;101474.50;4682340;30;20247;-74
2022/08/01 03:32:42;;;;;;;20.33;13.55;;;;;;;18.91;100.00;101480.53;4683244;30;20631;-73
2022/08/01 03:35:08;;;;;;;19.98;13.30;;;;;;;18.88;100.00;101469.28;4682574;30;20053;-73
2022/08/01 03:37:42;;;;;;;21.05;14.00;;;;;;;18.88;100.00;101461.03;4683128;30;20034;-74
2022/08/01 03:40:27;;;;;;;19.50;13.50;;;;;;;18.94;100.00;101468.19;4683155;30;20056;-74
2022/08/01 03:42:58;;;;;;;22.38;13.68;;;;;;;18.93;100.00;101469.28;4666240;30;20045;-73
2022/08/01 03:45:32;;;;;;;23.07;13.63;;;;;;;18.90;100.00;101467.91;4676563;30;20046;-74
2022/08/01 03:48:05;;;;;;;21.98;13.88;;;;;;;18.93;100.00;101472.03;4683127;30;20273;-73
2022/08/01 03:50:33;;;;;;;23.92;13.90;;;;;;;18.92;100.00;101462.16;4682559;30;20057;-74
2022/08/01 03:53:01;;;;;;;22.50;14.70;;;;;;;18.90;100.00;101473.41;4683098;30;20034;-73
2022/08/01 03:55:28;;;;;;;20.75;13.65;;;;;;;18.87;100.00;101475.84;4682316;30;20391;-73
2022/08/01 03:57:54;;;;;;;19.35;13.45;;;;;;;18.85;100.00;101472.50;4681646;30;20125;-73
2022/08/01 04:00:19;;;;;;;20.23;13.90;;;;;;;18.87;100.00;101468.47;4681836;30;20040;-73
2022/08/01 04:02:47;;;;;;;22.80;13.80;;;;;;;18.87;100.00;101475.84;4680690;30;20026;-73
2022/08/01 04:05:13;;;;;;;18.77;13.25;;;;;;;18.89;100.00;101462.69;4680955;30;20112;-73
2022/08/01 04:07:39;;;;;;;21.38;14.02;;;;;;;18.84;100.00;101470.84;4682904;30;20456;-73
2022/08/01 04:10:05;;;;;;;24.77;13.50;;;;;;;18.85;100.00;101476.09;4682673;30;20034;-72
2022/08/01 04:12:32;;;;;;;20.55;13.57;;;;;;;18.85;100.00;101478.84;4680753;30;20120;-73
2022/08/01 04:14:58;;;;;;;22.27;14.80;;;;;;;18.80;100.00;101476.06;4681679;30;20116;-73
2022/08/01 04:17:23;;;;;;;26.90;14.45;;;;;;;18.77;100.00;101476.59;4682311;30;20041;-74
2022/08/01 04:19:48;;;;;;;20.77;14.18;;;;;;;18.76;100.00;101480.41;4682737;30;20030;-74
2022/08/01 04:22:15;;;;;;;23.73;14.45;;;;;;;18.78;100.00;101489.19;4681752;30;20044;-73
2022/08/01 04:24:44;;;;;;;22.52;13.50;;;;;;;18.75;100.00;101486.97;4681915;30;20038;-73
2022/08/01 04:27:13;;;;;;;21.38;14.50;;;;;;;18.74;100.00;101491.63;4680958;30;20061;-73
2022/08/01 04:29:39;;;;;;;20.60;14.48;;;;;;;18.70;100.00;101497.91;4682320;30;20030;-73
2022/08/01 04:32:09;;;;;;;23.75;14.57;;;;;;;18.64;100.00;101483.34;4681211;30;20045;-73
2022/08/01 04:34:37;;;;;;;22.45;14.50;;;;;;;18.63;100.00;101475.38;4666186;30;20030;-73
2022/08/01 04:37:04;;;;;;;28.13;15.65;;;;;;;18.59;100.00;101486.88;4681696;30;20045;-74
2022/08/01 04:39:34;;;;;;;21.30;13.85;;;;;;;18.64;100.00;101497.03;4682300;30;20423;-74
2022/08/01 04:42:03;;;;;;;22.10;14.43;;;;;;;18.59;100.00;101492.34;4681707;30;20034;-72
2022/08/01 04:44:29;;;;;;;24.85;14.10;;;;;;;18.59;100.00;101483.31;4679580;30;20030;-73
2022/08/01 04:46:56;;;;;;;27.77;14.68;;;;;;;18.58;100.00;101493.47;4666772;30;20083;-73
2022/08/01 04:49:21;;;;;;;23.48;13.88;;;;;;;18.57;100.00;101501.94;4666689;30;20109;-73
2022/08/01 04:51:51;;;;;;;22.15;14.32;;;;;;;18.57;100.00;101504.69;4681378;30;20196;-73
2022/08/01 04:54:17;;;;;;;26.45;14.43;;;;;;;18.57;100.00;101510.19;4680611;30;20117;-73
2022/08/01 04:56:42;;;;;;;24.95;15.52;;;;;;;18.55;100.00;101504.94;4682366;30;20523;-72
2022/08/01 05:01:51;;;;;;;23.02;14.45;;;;;;;18.62;100.00;101510.19;4679089;30;20064;-73
2022/08/01 05:04:17;;;;;;;26.17;14.57;;;;;;;18.64;100.00;101510.75;4681401;30;20112;-72
2022/08/01 05:06:42;;;;;;;22.92;13.77;;;;;;;18.67;100.00;101514.88;4682046;30;20399;-73
2022/08/01 05:09:07;;;;;;;20.10;13.02;;;;;;;18.74;100.00;101526.47;4681967;30;20066;-72
2022/08/01 05:11:33;;;;;;;18.75;12.27;;;;;;;18.74;100.00;101523.72;4681452;30;20451;-73
2022/08/01 05:13:58;;;;;;;20.20;12.88;;;;;;;18.78;100.00;101528.41;4681215;30;20041;-73
2022/08/01 05:16:23;;;;;;;20.17;13.25;;;;;;;18.82;100.00;101530.63;4681877;30;20069;-73
2022/08/01 05:18:48;;;;;;;19.42;12.27;;;;;;;18.79;100.00;101521.00;4680582;30;20045;-74
2022/08/01 05:21:14;;;;;;;19.52;12.57;;;;;;;18.77;100.00;101525.94;4681784;30;20072;-73
2022/08/01 05:23:39;;;;;;;19.15;12.13;;;;;;;18.72;100.00;101523.13;4685576;30;20037;-73
2022/08/01 05:26:04;;;;;;;22.70;12.23;;;;;;;18.74;100.00;101532.75;4683918;30;20113;-73
2022/08/01 05:28:30;;;;;;;20.63;11.68;;;;;;;18.72;100.00;101532.22;4685299;30;20384;-73
2022/08/01 05:30:55;;;;;;;16.88;10.85;;;;;;;18.71;100.00;101524.25;4684605;30;20082;-73
2022/08/01 05:33:21;;;;;;;16.20;11.15;;;;;;;18.72;100.00;101528.63;4685231;30;20045;-73
2022/08/01 05:35:46;;;;;;;18.00;10.70;;;;;;;18.76;100.00;101537.97;4682065;30;20136;-73
2022/08/01 05:38:12;;;;;;;17.73;10.57;;;;;;;18.78;100.00;101533.03;4685258;30;20118;-73
2022/08/01 05:40:37;;;;;;;16.55;10.02;;;;;;;18.76;100.00;101524.28;4684145;30;20034;-73
2022/08/01 05:43:02;;;;;;;15.15;8.55;;;;;;;18.75;100.00;101523.47;4669777;30;20072;-72
2022/08/01 05:45:27;;;;;;;12.65;8.80;;;;;;;18.70;100.00;101528.06;4683691;30;20053;-73
2022/08/01 05:47:53;;;;;;;12.73;8.60;;;;;;;18.71;100.00;101527.81;4685356;30;20121;-73
2022/08/01 05:50:18;;;;;;;13.75;8.25;;;;;;;18.69;100.00;101534.63;4684954;30;20468;-72
2022/08/01 05:52:43;;;;;;;16.60;9.15;;;;;;;18.72;100.00;101528.63;4684085;30;20030;-73
2022/08/01 05:55:09;;;;;;;14.18;8.60;;;;;;;18.74;100.00;101529.22;4682571;30;20037;-74
2022/08/01 05:57:34;;;;;;;13.45;8.23;;;;;;;18.78;100.00;101530.31;4684532;30;20059;-73
2022/08/01 05:59:59;;;;;;;18.23;8.68;;;;;;;18.76;100.00;101533.31;4684721;30;20150;-73
2022/08/01 06:02:25;;;;;;;16.48;8.90;;;;;;;18.78;100.00;101536.63;4681118;30;20041;-73
2022/08/01 06:04:50;;;;;;;11.85;7.90;;;;;;;18.77;100.00;101542.38;4683956;30;20092;-74
2022/08/01 06:07:15;;;;;;;11.23;7.43;;;;;;;18.80;100.00;101533.63;4683299;30;20054;-73
2022/08/01 06:09:41;;;;;;;10.85;7.18;;;;;;;18.83;100.00;101541.31;4668597;30;20030;-73
2022/08/01 06:12:06;;;;;;;10.90;7.13;;;;;;;18.86;100.00;101546.31;4684734;30;20030;-74
2022/08/01 06:14:31;;;;;;;12.30;7.50;;;;;;;18.84;100.00;101537.50;4683043;30;20041;-73
2022/08/01 06:16:57;;;;;;;11.63;6.85;;;;;;;18.84;100.00;101537.50;4684517;30;20091;-74
2022/08/01 06:19:22;;;;;;;11.35;6.80;;;;;;;18.85;100.00;101541.91;4683873;30;20042;-73
2022/08/01 06:21:47;;;;;;;10.07;6.57;;;;;;;18.79;100.00;101537.47;4684683;30;20034;-73
2022/08/01 06:24:13;;;;;;;12.07;6.32;;;;;;;18.84;100.00;101547.63;4682826;30;20030;-74
2022/08/01 06:26:38;;;;;;;9.15;6.53;;;;;;;18.82;100.00;101534.19;4684409;30;20038;-73
2022/08/01 06:29:03;;;;;;;11.68;6.63;;;;;;;18.85;100.00;101539.16;4683826;30;20034;-72
2022/08/01 06:31:30;;;;;;;9.43;6.35;;;;;;;18.89;100.00;101551.28;4683151;30;20036;-72
2022/08/01 06:33:57;;;;;;;9.60;6.07;;;;;;;18.94;100.00;101539.50;4682681;30;20030;-73
2022/08/01 06:36:22;;;;;;;8.70;5.97;;;;;;;18.97;100.00;101549.13;4683907;30;20033;-73
2022/08/01 06:38:47;;;;;;;10.48;5.72;;;;;;;19.02;100.00;101549.16;4684369;30;20042;-73
2022/08/01 06:41:13;;;;;;;6.45;4.93;;;;;;;19.07;100.00;101549.19;4683367;30;20038;-73
2022/08/01 06:43:38;;;;;;;8.23;4.75;;;;;;;19.09;100.00;101549.75;4668121;30;20136;-73
2022/08/01 06:46:04;;;;;;;10.20;5.57;;;;;;;19.11;100.00;101553.03;4682999;30;20040;-73
2022/08/01 06:48:29;;;;;;;9.80;5.00;;;;;;;19.11;100.00;101561.28;4668529;30;20108;-73
2022/08/01 06:51:07;;;;;;;8.27;5.32;;;;;;;19.10;100.00;101552.22;4667863;30;20033;-73
2022/08/01 06:53:34;;;;;;;8.30;5.25;;;;;;;19.09;100.00;101567.03;4667571;30;20560;-73
2022/08/01 06:55:59;;;;;;;5.93;4.20;;;;;;;19.06;100.00;101577.72;4668457;30;20026;-73
2022/08/01 06:58:25;;;;;;;7.35;4.15;;;;;;;19.07;100.00;101565.66;4668256;30;20056;-73
2022/08/01 07:00:50;;;;;;;6.72;4.28;;;;;;;19.03;100.00;101562.59;4679013;30;20034;-72
2022/08/01 07:03:15;;;;;;;4.70;4.05;;;;;;;19.09;100.00;101561.53;4679027;30;20030;-74
2022/08/01 07:05:41;;;;;;;9.07;4.50;;;;;;;19.19;100.00;101566.28;4680310;30;20487;-73
2022/08/01 07:08:06;;;;;;;5.80;4.13;;;;;;;19.17;100.00;101554.72;4684067;30;20048;-72
2022/08/01 07:10:31;;;;;;;5.47;4.22;;;;;;;19.22;100.00;101564.91;4683286;30;20032;-73
2022/08/01 07:12:57;;;;;;;6.50;3.83;;;;;;;19.26;100.00;101566.88;4681026;30;20514;-73
2022/08/01 07:15:26;;;;;;;5.30;4.13;;;;;;;19.36;100.00;101565.28;4682366;30;20109;-74
2022/08/01 07:17:51;;;;;;;8.95;4.70;;;;;;;19.42;100.00;101566.94;4683247;30;20041;-74
2022/08/01 07:20:17;;;;;;;4.68;4.10;;;;;;;19.54;100.00;101566.72;4667562;30;20125;-74
2022/08/01 07:22:42;;;;;;;6.00;4.25;;;;;;;19.59;100.00;101569.47;4682620;30;20077;-73
2022/08/01 07:25:08;;;;;;;4.60;3.30;;;;;;;19.62;100.00;101563.44;4680696;30;20077;-73
2022/08/01 07:27:34;;;;;;;5.30;2.80;;;;;;;19.56;100.00;101564.53;4661000;30;20030;-73
2022/08/01 07:29:59;;;;;;;3.50;3.00;;;;;;;19.55;100.00;101571.94;4666478;30;20093;-73
2022/08/01 07:32:24;;;;;;;5.43;2.67;;;;;;;19.63;100.00;101574.16;4678380;30;20515;-73
2022/08/01 07:34:50;;;;;;;3.75;2.60;;;;;;;19.60;100.00;101571.97;4666161;30;20539;-73
2022/08/01 07:37:16;;;;;;;5.03;2.90;;;;;;;19.57;100.00;101567.00;4683461;30;20037;-73
2022/08/01 07:39:41;;;;;;;4.85;2.22;;;;;;;19.55;100.00;101580.19;4683194;30;20042;-73
2022/08/01 07:42:07;;;;;;;2.05;1.73;;;;;;;19.49;100.00;101581.25;4683133;30;20030;-74
2022/08/01 07:44:32;;;;;;;4.65;2.00;;;;;;;19.50;100.00;101585.63;4680429;30;20118;-74
2022/08/01 07:46:57;;;;;;;3.15;1.80;;;;;;;19.53;100.00;101584.28;4665655;30;20030;-73
2022/08/01 07:49:22;;;;;;;1.85;1.67;;;;;;;19.63;100.00;101579.66;4660439;30;20042;-73
2022/08/01 07:51:48;;;;;;;2.92;1.90;;;;;;;19.68;100.00;101578.84;4682581;30;20464;-74
2022/08/01 07:54:13;;;;;;;3.67;1.90;;;;;;;19.71;100.00;101577.50;4679106;30;20042;-74
2022/08/01 07:56:39;;;;;;;2.30;1.95;;;;;;;19.75;100.00;101584.09;4670548;30;20049;-75
2022/08/01 07:59:04;;;;;;;2.55;2.10;;;;;;;19.85;100.00;101581.41;4700184;30;20030;-73
2022/08/01 08:01:29;;;;;;;2.92;2.20;;;;;;;19.99;100.00;101585.31;4681696;30;20042;-74
2022/08/01 08:03:55;;;;;;;3.90;2.10;;;;;;;20.04;100.00;101589.16;4681367;30;20439;-76
2022/08/01 08:06:20;;;;;;;2.28;2.00;;;;;;;20.16;100.00;101592.50;4681727;30;20141;-75
2022/08/01 08:08:45;;;;;;;2.67;2.10;;;;;;;20.16;100.00;101590.56;4667052;30;20092;-73
2022/08/01 08:11:10;;;;;;;4.30;1.90;;;;;;;20.31;100.00;101589.75;4680892;30;20038;-72
2022/08/01 08:13:36;;;;;;;2.38;2.17;;;;;;;20.24;100.00;101580.94;4681434;30;20556;-73
2022/08/01 08:16:01;;;;;;;2.97;2.17;;;;;;;20.31;100.00;101591.69;4682288;30;20041;-73
2022/08/01 08:18:26;;;;;;;4.50;2.45;;;;;;;20.36;100.00;101600.75;4682782;30;20095;-72
2022/08/01 08:20:52;;;;;;;2.47;1.90;;;;;;;20.40;100.00;101590.06;4681813;30;20434;-74
2022/08/01 08:26:01;;;;;;;2.08;1.65;;;;;;;20.51;100.00;101596.38;4682461;30;20053;-74
2022/08/01 08:28:26;;;;;;;3.05;1.50;;;;;;;20.53;100.00;101589.53;4682281;30;20387;-73
2022/08/01 08:30:54;;;;;;;2.20;1.88;;;;;;;20.47;99.72;101592.53;4682802;30;20463;-74
2022/08/01 08:33:19;;;;;;;7.25;2.15;;;;;;;20.50;100.00;101590.06;4679807;30;20042;-73
2022/08/01 08:35:45;;;;;;;2.40;1.60;;;;;;;20.53;95.19;101588.66;4675039;30;20169;-72
2022/08/01 08:38:10;;;;;;;15.40;3.03;;;;;;;20.55;92.86;101597.50;4664204;30;20384;-73
2022/08/01 08:40:37;;;;;;;11.43;2.65;;;;;;;20.61;99.27;101596.38;4665254;30;20465;-73
2022/08/01 08:43:05;;;;;;;21.55;2.78;;;;;;;20.63;91.50;101588.69;4677930;30;20121;-73
2022/08/01 08:45:31;;;;;;;4.80;1.60;;;;;;;20.64;92.73;101593.09;4679930;30;20045;-75
2022/08/01 08:47:56;;;;;;;10.23;2.33;;;;;;;20.69;98.16;101590.34;4677100;30;20042;-72
2022/08/01 08:50:25;;;;;;;4.20;1.63;;;;;;;20.82;98.79;101600.00;4663453;30;20038;-74
2022/08/01 08:52:53;;;;;;;1.40;1.30;;;;;;;20.85;97.28;101596.69;4676803;30;20108;-73
2022/08/01 08:55:19;;;;;;;1.75;1.30;;;;;;;20.93;92.53;101597.25;4676446;30;20531;-73
2022/08/01 08:57:45;;;;;;;3.67;1.10;;;;;;;20.94;91.88;101594.22;4668658;30;20102;-73
2022/08/01 09:00:12;;;;;;;1.15;0.90;;;;;;;20.98;87.23;101602.72;4665230;30;20343;-73
2022/08/01 09:02:43;;;;;;;2.45;1.20;;;;;;;20.91;86.68;101599.44;4674838;30;20041;-73
2022/08/01 09:05:09;;;;;;;10.50;2.20;;;;;;;20.97;88.47;101601.91;4681367;30;20112;-74
2022/08/01 09:07:34;;;;;;;3.53;1.02;;;;;;;21.00;87.59;101603.25;4665601;30;20030;-73
2022/08/01 09:09:59;;;;;;;2.85;1.10;;;;;;;21.14;94.15;101604.34;4665234;30;20493;-74
2022/08/01 09:12:25;;;;;;;5.35;1.80;;;;;;;21.15;88.30;101605.16;4677842;30;20034;-72
2022/08/01 09:14:53;;;;;;;3.92;1.27;;;;;;;21.12;86.19;101602.97;4675744;30;20030;-75
2022/08/01 09:17:19;;;;;;;2.38;0.80;;;;;;;21.00;84.33;101604.09;4680791;30;20104;-74
2022/08/01 09:19:47;;;;;;;3.45;0.80;;;;;;;21.07;87.71;101609.31;4682014;30;20112;-75
2022/08/01 09:22:17;;;;;;;3.05;0.70;;;;;;;21.16;84.45;101612.34;4680597;30;20034;-73
2022/08/01 09:24:57;;;;;;;0.80;0.60;;;;;;;21.22;87.11;101611.22;4677937;30;20381;-74
2022/08/01 09:27:25;;;;;;;0.60;0.60;;;;;;;21.31;84.30;101615.03;4690120;30;20120;-74
2022/08/01 09:29:51;;;;;;;0.88;0.88;;;;;;;21.20;81.92;101599.66;4681742;30;20482;-74
2022/08/01 09:32:17;;;;;;;0.75;0.75;;;;;;;21.24;83.15;101609.00;4663285;30;20038;-74
2022/08/01 09:34:42;;;;;;;1.13;0.68;;;;;;;21.30;84.98;101613.38;4679996;30;20162;-74
2022/08/01 09:37:07;;;;;;;2.25;0.60;;;;;;;21.35;81.69;101621.66;4678259;30;20058;-74
2022/08/01 09:39:37;;;;;;;2.72;0.60;;;;;;;21.39;79.54;101616.41;4664198;30;20030;-74
2022/08/01 09:42:21;;;;;;;0.85;0.80;;;;;;;21.48;83.28;101611.16;4676939;30;20053;-74
2022/08/01 09:44:46;;;;;;;0.88;0.70;;;;;;;21.55;77.28;101623.53;4659405;30;20033;-74
2022/08/01 09:47:13;;;;;;;1.00;0.90;;;;;;;21.73;77.12;101618.53;4680036;30;20042;-74
2022/08/01 09:49:40;;;;;;;1.20;0.60;;;;;;;21.81;75.13;101619.88;4680958;30;20034;-75
2022/08/01 09:52:17;;;;;;;1.35;0.98;;;;;;;21.85;74.80;101619.03;4679020;30;20049;-74
2022/08/01 09:54:52;;;;;;;0.90;0.82;;;;;;;21.96;76.42;101619.78;4678097;30;20119;-77
2022/08/01 09:57:19;;;;;;;1.88;0.70;;;;;;;21.97;74.52;101621.47;4679631;30;20490;-77
2022/08/01 09:59:50;;;;;;;1.42;0.68;;;;;;;21.94;74.38;101627.53;4679265;30;20045;-75
2022/08/01 10:02:35;;;;;;;0.93;0.60;;;;;;;21.89;76.68;101627.53;4660493;30;20038;-72
2022/08/01 10:05:03;;;;;;;0.57;0.55;;;;;;;21.81;74.26;101623.44;4663175;30;20141;-75
2022/08/01 10:07:29;;;;;;;1.48;0.80;;;;;;;21.84;74.70;101624.81;4656343;30;20053;-72
2022/08/01 10:09:54;;;;;;;0.70;0.70;;;;;;;21.89;72.55;101614.59;4683678;30;20045;-72
2022/08/01 10:12:23;;;;;;;1.17;1.00;;;;;;;21.99;74.06;101623.94;4676778;30;20487;-72
2022/08/01 10:14:50;;;;;;;1.33;0.88;;;;;;;22.10;75.17;101620.84;4668862;30;20029;-71
2022/08/01 10:17:17;;;;;;;1.15;0.70;;;;;;;22.23;73.76;101621.31;4684594;30;20100;-74
2022/08/01 10:19:43;;;;;;;3.70;1.08;;;;;;;22.30;73.72;101621.81;4684273;30;20038;-74
2022/08/01 10:22:11;;;;;;;3.33;0.98;;;;;;;22.24;72.56;101623.78;4683009;30;20089;-74
2022/08/01 10:24:41;;;;;;;2.67;1.02;;;;;;;22.33;74.13;101632.31;4682597;30;20546;-73
2022/08/01 10:27:09;;;;;;;2.73;1.70;;;;;;;22.28;74.45;101626.78;4668405;30;20042;-76
2022/08/01 10:29:38;;;;;;;2.53;1.52;;;;;;;22.22;75.76;101636.19;4684334;30;20368;-74
2022/08/01 10:32:09;;;;;;;3.95;1.60;;;;;;;22.10;77.90;101642.03;4684577;30;20470;-73
2022/08/01 10:34:35;;;;;;;1.70;1.45;;;;;;;22.02;77.73;101637.94;4683098;30;20034;-73
2022/08/01 10:37:01;;;;;;;2.17;1.58;;;;;;;22.00;79.67;101637.41;4668632;30;20519;-74
2022/08/01 10:39:29;;;;;;;2.38;1.67;;;;;;;22.03;78.35;101645.13;4684659;30;20116;-75
2022/08/01 10:41:55;;;;;;;1.90;1.33;;;;;;;22.06;78.90;101640.97;4682843;30;20046;-75
2022/08/01 10:44:21;;;;;;;2.55;1.30;;;;;;;22.08;77.32;101641.50;4684436;30;20041;-75
2022/08/01 10:46:52;;;;;;;1.20;1.13;;;;;;;22.00;78.99;101634.66;4683245;30;20168;-76
2022/08/01 10:49:22;;;;;;;2.78;0.95;;;;;;;21.98;78.54;101627.78;4668580;30;20034;-76
2022/08/01 10:51:47;;;;;;;1.23;1.13;;;;;;;22.05;78.84;101637.38;4683725;30;20101;-76
2022/08/01 10:54:13;;;;;;;1.15;1.08;;;;;;;22.12;78.08;101639.84;4668763;30;20038;-75
2022/08/01 10:56:43;;;;;;;1.25;1.02;;;;;;;22.22;78.78;101652.72;4684020;30;20038;-74
2022/08/01 10:59:08;;;;;;;4.82;1.33;;;;;;;22.12;78.31;101651.69;4683645;30;20037;-74
2022/08/01 11:01:34;;;;;;;1.52;0.90;;;;;;;22.06;79.19;101649.25;4681058;30;20049;-73
2022/08/01 11:04:06;;;;;;;1.98;1.20;;;;;;;22.04;80.25;101657.81;4668559;30;20456;-72
2022/08/01 11:06:34;;;;;;;2.97;1.30;;;;;;;21.76;78.66;101665.63;4683981;30;20116;-73
2022/08/01 11:09:02;;;;;;;3.17;1.20;;;;;;;21.69;81.03;101662.31;4682195;30;20415;-73
2022/08/01 11:11:28;;;;;;;1.67;1.38;;;;;;;21.86;83.50;101661.16;4683855;30;20026;-73
2022/08/01 11:14:00;;;;;;;1.30;1.00;;;;;;;21.95;82.46;101663.06;4683773;30;20120;-73
2022/08/01 11:16:30;;;;;;;1.55;1.38;;;;;;;21.81;78.78;101677.72;4683647;30;20383;-73
2022/08/01 11:18:56;;;;;;;1.17;1.08;;;;;;;21.72;80.75;101675.53;4679327;30;20110;-73